sensor_id;sensor_type;location;lat;lon;timestamp;P1;durP1;ratioP1;P2;durP2;ratioP2
53879;SDS011;39791;53.184;5.486;2024-01-07T00:01:38;51.95;;;46.58;;
53879;SDS011;39791;53.184;5.486;2024-01-07T00:04:03;48.42;;;43.53;;
53879;SDS011;39791;53.184;5.486;2024-01-07T00:06:29;50.65;;;45.35;;
53879;SDS011;39791;53.184;5.486;2024-01-07T00:08:54;49.10;;;43.95;;
53879;SDS011;39791;53.184;5.486;2024-01-07T00:11:20;52.53;;;47.22;;
53879;SDS011;39791;53.184;5.486;2024-01-07T00:13:45;54.65;;;49.13;;
53879;SDS011;39791;53.184;5.486;2024-01-07T00:16:11;52.22;;;47.05;;
53879;SDS011;39791;53.184;5.486;2024-01-07T00:18:37;55.85;;;49.92;;
53879;SDS011;39791;53.184;5.486;2024-01-07T00:21:02;56.45;;;50.45;;
53879;SDS011;39791;53.184;5.486;2024-01-07T00:23:28;55.25;;;49.33;;
53879;SDS011;39791;53.184;5.486;2024-01-07T00:25:53;54.35;;;48.88;;
53879;SDS011;39791;53.184;5.486;2024-01-07T00:28:20;56.40;;;51.08;;
53879;SDS011;39791;53.184;5.486;2024-01-07T00:30:45;57.33;;;51.75;;
53879;SDS011;39791;53.184;5.486;2024-01-07T00:33:11;56.33;;;50.83;;
53879;SDS011;39791;53.184;5.486;2024-01-07T00:35:36;58.53;;;52.65;;
53879;SDS011;39791;53.184;5.486;2024-01-07T00:38:02;60.85;;;55.10;;
53879;SDS011;39791;53.184;5.486;2024-01-07T00:40:28;58.20;;;52.28;;
53879;SDS011;39791;53.184;5.486;2024-01-07T00:42:53;57.80;;;51.92;;
53879;SDS011;39791;53.184;5.486;2024-01-07T00:45:19;54.85;;;49.22;;
53879;SDS011;39791;53.184;5.486;2024-01-07T00:47:44;54.53;;;48.83;;
53879;SDS011;39791;53.184;5.486;2024-01-07T00:50:10;55.42;;;50.13;;
53879;SDS011;39791;53.184;5.486;2024-01-07T00:52:36;51.33;;;45.97;;
53879;SDS011;39791;53.184;5.486;2024-01-07T00:55:05;52.97;;;47.88;;
53879;SDS011;39791;53.184;5.486;2024-01-07T00:57:32;56.50;;;50.88;;
53879;SDS011;39791;53.184;5.486;2024-01-07T00:59:58;54.10;;;49.10;;
53879;SDS011;39791;53.184;5.486;2024-01-07T01:02:24;49.97;;;45.45;;
53879;SDS011;39791;53.184;5.486;2024-01-07T01:04:50;49.45;;;44.75;;
53879;SDS011;39791;53.184;5.486;2024-01-07T01:07:16;46.35;;;41.90;;
53879;SDS011;39791;53.184;5.486;2024-01-07T01:09:41;47.58;;;42.63;;
53879;SDS011;39791;53.184;5.486;2024-01-07T01:12:07;47.15;;;42.22;;
53879;SDS011;39791;53.184;5.486;2024-01-07T01:14:32;47.53;;;42.88;;
53879;SDS011;39791;53.184;5.486;2024-01-07T01:16:58;46.45;;;41.88;;
53879;SDS011;39791;53.184;5.486;2024-01-07T01:19:24;50.08;;;44.97;;
53879;SDS011;39791;53.184;5.486;2024-01-07T01:21:49;49.60;;;44.65;;
53879;SDS011;39791;53.184;5.486;2024-01-07T01:24:15;47.97;;;42.88;;
53879;SDS011;39791;53.184;5.486;2024-01-07T01:26:41;46.40;;;42.03;;
53879;SDS011;39791;53.184;5.486;2024-01-07T01:29:06;43.40;;;39.33;;
53879;SDS011;39791;53.184;5.486;2024-01-07T01:31:32;45.53;;;41.00;;
53879;SDS011;39791;53.184;5.486;2024-01-07T01:33:57;47.65;;;42.97;;
53879;SDS011;39791;53.184;5.486;2024-01-07T01:36:23;46.42;;;41.63;;
53879;SDS011;39791;53.184;5.486;2024-01-07T01:38:49;46.13;;;41.55;;
53879;SDS011;39791;53.184;5.486;2024-01-07T01:41:15;44.35;;;39.85;;
53879;SDS011;39791;53.184;5.486;2024-01-07T01:43:41;45.80;;;41.08;;
53879;SDS011;39791;53.184;5.486;2024-01-07T01:46:07;48.42;;;43.63;;
53879;SDS011;39791;53.184;5.486;2024-01-07T01:48:34;45.72;;;41.13;;
53879;SDS011;39791;53.184;5.486;2024-01-07T01:51:01;46.75;;;41.85;;
53879;SDS011;39791;53.184;5.486;2024-01-07T01:53:27;50.92;;;42.72;;
53879;SDS011;39791;53.184;5.486;2024-01-07T01:55:53;46.72;;;41.70;;
53879;SDS011;39791;53.184;5.486;2024-01-07T01:58:21;44.88;;;40.00;;
53879;SDS011;39791;53.184;5.486;2024-01-07T02:00:48;48.80;;;43.13;;
53879;SDS011;39791;53.184;5.486;2024-01-07T02:03:16;46.47;;;41.70;;
53879;SDS011;39791;53.184;5.486;2024-01-07T02:05:42;44.10;;;39.63;;
53879;SDS011;39791;53.184;5.486;2024-01-07T02:08:08;44.72;;;39.90;;
53879;SDS011;39791;53.184;5.486;2024-01-07T02:10:34;45.10;;;39.05;;
53879;SDS011;39791;53.184;5.486;2024-01-07T02:13:01;44.42;;;39.90;;
53879;SDS011;39791;53.184;5.486;2024-01-07T02:15:30;46.65;;;41.65;;
53879;SDS011;39791;53.184;5.486;2024-01-07T02:17:56;44.83;;;40.25;;
53879;SDS011;39791;53.184;5.486;2024-01-07T02:20:22;51.25;;;43.40;;
53879;SDS011;39791;53.184;5.486;2024-01-07T02:22:48;48.25;;;43.30;;
53879;SDS011;39791;53.184;5.486;2024-01-07T02:25:13;42.05;;;37.65;;
53879;SDS011;39791;53.184;5.486;2024-01-07T02:27:39;47.45;;;42.60;;
53879;SDS011;39791;53.184;5.486;2024-01-07T02:30:05;42.53;;;37.92;;
53879;SDS011;39791;53.184;5.486;2024-01-07T02:32:31;45.38;;;40.95;;
53879;SDS011;39791;53.184;5.486;2024-01-07T02:34:59;44.22;;;39.65;;
53879;SDS011;39791;53.184;5.486;2024-01-07T02:37:25;43.38;;;39.33;;
53879;SDS011;39791;53.184;5.486;2024-01-07T02:39:51;45.60;;;41.35;;
53879;SDS011;39791;53.184;5.486;2024-01-07T02:42:16;42.25;;;38.10;;
53879;SDS011;39791;53.184;5.486;2024-01-07T02:44:42;42.42;;;38.10;;
53879;SDS011;39791;53.184;5.486;2024-01-07T02:47:08;41.92;;;37.85;;
53879;SDS011;39791;53.184;5.486;2024-01-07T02:49:33;42.55;;;38.17;;
53879;SDS011;39791;53.184;5.486;2024-01-07T02:51:59;38.88;;;35.17;;
53879;SDS011;39791;53.184;5.486;2024-01-07T02:54:25;38.10;;;34.40;;
53879;SDS011;39791;53.184;5.486;2024-01-07T02:56:50;38.65;;;35.03;;
53879;SDS011;39791;53.184;5.486;2024-01-07T02:59:16;38.58;;;34.88;;
53879;SDS011;39791;53.184;5.486;2024-01-07T03:01:41;38.13;;;34.45;;
53879;SDS011;39791;53.184;5.486;2024-01-07T03:04:10;37.38;;;33.72;;
53879;SDS011;39791;53.184;5.486;2024-01-07T03:06:37;42.20;;;38.30;;
53879;SDS011;39791;53.184;5.486;2024-01-07T03:09:03;50.50;;;45.92;;
53879;SDS011;39791;53.184;5.486;2024-01-07T03:11:29;47.67;;;43.25;;
53879;SDS011;39791;53.184;5.486;2024-01-07T03:13:55;40.20;;;36.40;;
53879;SDS011;39791;53.184;5.486;2024-01-07T03:16:22;42.63;;;38.47;;
53879;SDS011;39791;53.184;5.486;2024-01-07T03:18:48;42.58;;;38.38;;
53879;SDS011;39791;53.184;5.486;2024-01-07T03:21:20;57.17;;;51.55;;
53879;SDS011;39791;53.184;5.486;2024-01-07T03:23:47;44.75;;;40.35;;
53879;SDS011;39791;53.184;5.486;2024-01-07T03:26:14;44.08;;;39.90;;
53879;SDS011;39791;53.184;5.486;2024-01-07T03:28:40;41.78;;;37.58;;
53879;SDS011;39791;53.184;5.486;2024-01-07T03:31:10;40.83;;;36.80;;
53879;SDS011;39791;53.184;5.486;2024-01-07T03:33:38;49.35;;;44.50;;
53879;SDS011;39791;53.184;5.486;2024-01-07T03:36:10;41.97;;;37.72;;
53879;SDS011;39791;53.184;5.486;2024-01-07T03:38:37;40.28;;;36.58;;
53879;SDS011;39791;53.184;5.486;2024-01-07T03:41:04;38.65;;;34.80;;
53879;SDS011;39791;53.184;5.486;2024-01-07T03:43:30;43.00;;;35.83;;
53879;SDS011;39791;53.184;5.486;2024-01-07T03:45:55;34.25;;;30.67;;
53879;SDS011;39791;53.184;5.486;2024-01-07T03:48:21;37.20;;;31.60;;
53879;SDS011;39791;53.184;5.486;2024-01-07T03:50:46;34.53;;;31.23;;
53879;SDS011;39791;53.184;5.486;2024-01-07T03:53:12;40.95;;;37.15;;
53879;SDS011;39791;53.184;5.486;2024-01-07T03:55:38;40.28;;;36.50;;
53879;SDS011;39791;53.184;5.486;2024-01-07T03:58:05;43.10;;;39.30;;
53879;SDS011;39791;53.184;5.486;2024-01-07T04:00:31;38.83;;;35.10;;
53879;SDS011;39791;53.184;5.486;2024-01-07T04:02:56;36.75;;;33.45;;
53879;SDS011;39791;53.184;5.486;2024-01-07T04:05:22;36.75;;;33.30;;
53879;SDS011;39791;53.184;5.486;2024-01-07T04:07:48;40.08;;;36.33;;
53879;SDS011;39791;53.184;5.486;2024-01-07T04:10:16;31.30;;;28.30;;
53879;SDS011;39791;53.184;5.486;2024-01-07T04:12:42;36.25;;;33.08;;
53879;SDS011;39791;53.184;5.486;2024-01-07T04:15:08;33.80;;;30.70;;
53879;SDS011;39791;53.184;5.486;2024-01-07T04:17:34;35.53;;;32.53;;
53879;SDS011;39791;53.184;5.486;2024-01-07T04:19:59;32.97;;;30.38;;
53879;SDS011;39791;53.184;5.486;2024-01-07T04:22:25;31.38;;;28.55;;
53879;SDS011;39791;53.184;5.486;2024-01-07T04:24:50;32.83;;;29.75;;
53879;SDS011;39791;53.184;5.486;2024-01-07T04:27:16;39.33;;;35.92;;
53879;SDS011;39791;53.184;5.486;2024-01-07T04:29:41;34.60;;;31.33;;
53879;SDS011;39791;53.184;5.486;2024-01-07T04:32:07;31.77;;;28.75;;
53879;SDS011;39791;53.184;5.486;2024-01-07T04:34:32;31.83;;;29.02;;
53879;SDS011;39791;53.184;5.486;2024-01-07T04:36:58;28.73;;;25.77;;
53879;SDS011;39791;53.184;5.486;2024-01-07T04:39:24;33.38;;;30.35;;
53879;SDS011;39791;53.184;5.486;2024-01-07T04:41:49;29.60;;;26.77;;
53879;SDS011;39791;53.184;5.486;2024-01-07T04:44:15;28.38;;;25.77;;
53879;SDS011;39791;53.184;5.486;2024-01-07T04:46:40;34.35;;;31.25;;
53879;SDS011;39791;53.184;5.486;2024-01-07T04:49:06;34.10;;;30.40;;
53879;SDS011;39791;53.184;5.486;2024-01-07T04:51:32;29.23;;;26.40;;
53879;SDS011;39791;53.184;5.486;2024-01-07T04:53:58;30.63;;;28.13;;
53879;SDS011;39791;53.184;5.486;2024-01-07T04:56:24;30.35;;;27.88;;
53879;SDS011;39791;53.184;5.486;2024-01-07T04:58:50;29.38;;;26.88;;
53879;SDS011;39791;53.184;5.486;2024-01-07T05:01:18;29.98;;;27.05;;
53879;SDS011;39791;53.184;5.486;2024-01-07T05:03:44;30.50;;;28.02;;
53879;SDS011;39791;53.184;5.486;2024-01-07T05:06:09;29.10;;;26.83;;
53879;SDS011;39791;53.184;5.486;2024-01-07T05:08:36;29.50;;;27.15;;
53879;SDS011;39791;53.184;5.486;2024-01-07T05:11:02;31.15;;;28.58;;
53879;SDS011;39791;53.184;5.486;2024-01-07T05:13:28;31.23;;;28.38;;
53879;SDS011;39791;53.184;5.486;2024-01-07T05:15:55;27.35;;;24.95;;
53879;SDS011;39791;53.184;5.486;2024-01-07T05:18:21;29.70;;;26.73;;
53879;SDS011;39791;53.184;5.486;2024-01-07T05:20:48;29.15;;;26.38;;
53879;SDS011;39791;53.184;5.486;2024-01-07T05:23:14;29.77;;;27.10;;
53879;SDS011;39791;53.184;5.486;2024-01-07T05:25:39;28.77;;;26.20;;
53879;SDS011;39791;53.184;5.486;2024-01-07T05:28:07;28.42;;;25.95;;
53879;SDS011;39791;53.184;5.486;2024-01-07T05:30:32;30.30;;;27.40;;
53879;SDS011;39791;53.184;5.486;2024-01-07T05:32:58;28.52;;;25.83;;
53879;SDS011;39791;53.184;5.486;2024-01-07T05:35:23;28.05;;;25.65;;
53879;SDS011;39791;53.184;5.486;2024-01-07T05:37:49;28.63;;;26.13;;
53879;SDS011;39791;53.184;5.486;2024-01-07T05:40:15;28.83;;;26.20;;
53879;SDS011;39791;53.184;5.486;2024-01-07T05:42:40;27.52;;;25.30;;
53879;SDS011;39791;53.184;5.486;2024-01-07T05:45:06;27.23;;;24.77;;
53879;SDS011;39791;53.184;5.486;2024-01-07T05:47:32;28.23;;;25.73;;
53879;SDS011;39791;53.184;5.486;2024-01-07T05:49:57;25.60;;;23.60;;
53879;SDS011;39791;53.184;5.486;2024-01-07T05:52:23;27.33;;;24.92;;
53879;SDS011;39791;53.184;5.486;2024-01-07T05:54:49;28.70;;;26.10;;
53879;SDS011;39791;53.184;5.486;2024-01-07T05:57:14;27.77;;;25.42;;
53879;SDS011;39791;53.184;5.486;2024-01-07T05:59:40;26.48;;;24.58;;
53879;SDS011;39791;53.184;5.486;2024-01-07T06:02:06;26.08;;;23.90;;
53879;SDS011;39791;53.184;5.486;2024-01-07T06:04:31;26.23;;;24.13;;
53879;SDS011;39791;53.184;5.486;2024-01-07T06:06:57;27.30;;;24.35;;
53879;SDS011;39791;53.184;5.486;2024-01-07T06:09:23;25.58;;;23.48;;
53879;SDS011;39791;53.184;5.486;2024-01-07T06:11:50;24.50;;;22.33;;
53879;SDS011;39791;53.184;5.486;2024-01-07T06:14:15;22.92;;;21.13;;
53879;SDS011;39791;53.184;5.486;2024-01-07T06:16:41;24.33;;;22.33;;
53879;SDS011;39791;53.184;5.486;2024-01-07T06:19:07;25.08;;;22.90;;
53879;SDS011;39791;53.184;5.486;2024-01-07T06:21:33;25.10;;;22.80;;
53879;SDS011;39791;53.184;5.486;2024-01-07T06:23:58;25.65;;;23.35;;
53879;SDS011;39791;53.184;5.486;2024-01-07T06:26:24;24.77;;;22.67;;
53879;SDS011;39791;53.184;5.486;2024-01-07T06:28:49;24.48;;;22.50;;
53879;SDS011;39791;53.184;5.486;2024-01-07T06:31:15;24.77;;;22.48;;
53879;SDS011;39791;53.184;5.486;2024-01-07T06:33:40;25.50;;;23.27;;
53879;SDS011;39791;53.184;5.486;2024-01-07T06:36:06;25.15;;;23.13;;
53879;SDS011;39791;53.184;5.486;2024-01-07T06:38:32;24.13;;;22.13;;
53879;SDS011;39791;53.184;5.486;2024-01-07T06:40:58;26.60;;;24.40;;
53879;SDS011;39791;53.184;5.486;2024-01-07T06:43:29;25.10;;;23.10;;
53879;SDS011;39791;53.184;5.486;2024-01-07T06:45:55;26.63;;;24.27;;
53879;SDS011;39791;53.184;5.486;2024-01-07T06:48:21;23.98;;;21.98;;
53879;SDS011;39791;53.184;5.486;2024-01-07T06:50:46;23.58;;;21.40;;
53879;SDS011;39791;53.184;5.486;2024-01-07T06:53:12;24.65;;;22.55;;
53879;SDS011;39791;53.184;5.486;2024-01-07T06:55:37;22.63;;;20.83;;
53879;SDS011;39791;53.184;5.486;2024-01-07T06:58:03;22.60;;;20.80;;
53879;SDS011;39791;53.184;5.486;2024-01-07T07:00:29;22.42;;;20.73;;
53879;SDS011;39791;53.184;5.486;2024-01-07T07:02:54;22.25;;;20.55;;
53879;SDS011;39791;53.184;5.486;2024-01-07T07:05:20;22.33;;;20.27;;
53879;SDS011;39791;53.184;5.486;2024-01-07T07:07:45;21.05;;;19.23;;
53879;SDS011;39791;53.184;5.486;2024-01-07T07:10:11;20.73;;;19.02;;
53879;SDS011;39791;53.184;5.486;2024-01-07T07:12:37;23.08;;;21.02;;
53879;SDS011;39791;53.184;5.486;2024-01-07T07:15:03;22.85;;;20.90;;
53879;SDS011;39791;53.184;5.486;2024-01-07T07:17:29;21.20;;;19.60;;
53879;SDS011;39791;53.184;5.486;2024-01-07T07:19:54;22.38;;;20.58;;
53879;SDS011;39791;53.184;5.486;2024-01-07T07:22:20;23.80;;;21.83;;
53879;SDS011;39791;53.184;5.486;2024-01-07T07:24:45;21.08;;;19.48;;
53879;SDS011;39791;53.184;5.486;2024-01-07T07:27:11;21.17;;;19.25;;
53879;SDS011;39791;53.184;5.486;2024-01-07T07:29:36;21.10;;;19.55;;
53879;SDS011;39791;53.184;5.486;2024-01-07T07:32:02;21.17;;;19.48;;
53879;SDS011;39791;53.184;5.486;2024-01-07T07:34:28;23.05;;;21.25;;
53879;SDS011;39791;53.184;5.486;2024-01-07T07:36:53;20.08;;;18.60;;
53879;SDS011;39791;53.184;5.486;2024-01-07T07:39:20;22.33;;;20.50;;
53879;SDS011;39791;53.184;5.486;2024-01-07T07:41:46;22.30;;;20.60;;
53879;SDS011;39791;53.184;5.486;2024-01-07T07:44:13;21.80;;;19.90;;
53879;SDS011;39791;53.184;5.486;2024-01-07T07:46:38;22.75;;;20.80;;
53879;SDS011;39791;53.184;5.486;2024-01-07T07:49:04;21.45;;;19.38;;
53879;SDS011;39791;53.184;5.486;2024-01-07T07:51:30;21.05;;;19.45;;
53879;SDS011;39791;53.184;5.486;2024-01-07T07:53:56;20.88;;;19.25;;
53879;SDS011;39791;53.184;5.486;2024-01-07T07:56:22;21.67;;;19.88;;
53879;SDS011;39791;53.184;5.486;2024-01-07T07:58:47;22.35;;;20.40;;
53879;SDS011;39791;53.184;5.486;2024-01-07T08:01:13;21.92;;;20.13;;
53879;SDS011;39791;53.184;5.486;2024-01-07T08:03:39;21.40;;;19.70;;
53879;SDS011;39791;53.184;5.486;2024-01-07T08:06:04;21.13;;;19.42;;
53879;SDS011;39791;53.184;5.486;2024-01-07T08:08:30;22.23;;;20.45;;
53879;SDS011;39791;53.184;5.486;2024-01-07T08:10:56;21.48;;;19.77;;
53879;SDS011;39791;53.184;5.486;2024-01-07T08:13:21;23.50;;;21.30;;
53879;SDS011;39791;53.184;5.486;2024-01-07T08:15:47;23.65;;;21.65;;
53879;SDS011;39791;53.184;5.486;2024-01-07T08:18:12;24.02;;;21.90;;
53879;SDS011;39791;53.184;5.486;2024-01-07T08:20:38;23.00;;;21.15;;
53879;SDS011;39791;53.184;5.486;2024-01-07T08:23:04;22.85;;;20.85;;
53879;SDS011;39791;53.184;5.486;2024-01-07T08:25:29;23.52;;;21.83;;
53879;SDS011;39791;53.184;5.486;2024-01-07T08:27:55;24.40;;;22.27;;
53879;SDS011;39791;53.184;5.486;2024-01-07T08:30:21;22.35;;;20.60;;
53879;SDS011;39791;53.184;5.486;2024-01-07T08:32:46;22.55;;;20.55;;
53879;SDS011;39791;53.184;5.486;2024-01-07T08:35:12;20.80;;;19.20;;
53879;SDS011;39791;53.184;5.486;2024-01-07T08:37:37;23.23;;;21.33;;
53879;SDS011;39791;53.184;5.486;2024-01-07T08:40:03;24.10;;;22.10;;
53879;SDS011;39791;53.184;5.486;2024-01-07T08:42:29;23.80;;;21.75;;
53879;SDS011;39791;53.184;5.486;2024-01-07T08:44:55;23.23;;;20.90;;
53879;SDS011;39791;53.184;5.486;2024-01-07T08:47:21;23.95;;;21.95;;
53879;SDS011;39791;53.184;5.486;2024-01-07T08:49:47;24.90;;;22.70;;
53879;SDS011;39791;53.184;5.486;2024-01-07T08:52:12;25.10;;;22.80;;
53879;SDS011;39791;53.184;5.486;2024-01-07T08:54:38;23.67;;;21.73;;
53879;SDS011;39791;53.184;5.486;2024-01-07T08:57:03;24.77;;;22.45;;
53879;SDS011;39791;53.184;5.486;2024-01-07T08:59:29;26.17;;;23.90;;
53879;SDS011;39791;53.184;5.486;2024-01-07T09:01:55;25.33;;;23.23;;
53879;SDS011;39791;53.184;5.486;2024-01-07T09:04:20;24.08;;;22.13;;
53879;SDS011;39791;53.184;5.486;2024-01-07T09:06:46;24.80;;;22.70;;
53879;SDS011;39791;53.184;5.486;2024-01-07T09:09:12;24.27;;;22.27;;
53879;SDS011;39791;53.184;5.486;2024-01-07T09:11:38;24.55;;;22.20;;
53879;SDS011;39791;53.184;5.486;2024-01-07T09:14:03;22.75;;;20.95;;
53879;SDS011;39791;53.184;5.486;2024-01-07T09:16:29;21.52;;;19.63;;
53879;SDS011;39791;53.184;5.486;2024-01-07T09:18:55;23.90;;;21.60;;
53879;SDS011;39791;53.184;5.486;2024-01-07T09:21:21;20.48;;;18.20;;
53879;SDS011;39791;53.184;5.486;2024-01-07T09:23:48;23.08;;;21.27;;
53879;SDS011;39791;53.184;5.486;2024-01-07T09:26:13;22.60;;;20.67;;
53879;SDS011;39791;53.184;5.486;2024-01-07T09:28:39;20.92;;;19.23;;
53879;SDS011;39791;53.184;5.486;2024-01-07T09:31:05;22.98;;;20.98;;
53879;SDS011;39791;53.184;5.486;2024-01-07T09:33:32;22.52;;;20.63;;
53879;SDS011;39791;53.184;5.486;2024-01-07T09:35:57;20.83;;;19.23;;
53879;SDS011;39791;53.184;5.486;2024-01-07T09:38:23;18.85;;;17.45;;
53879;SDS011;39791;53.184;5.486;2024-01-07T09:40:50;20.27;;;18.52;;
53879;SDS011;39791;53.184;5.486;2024-01-07T09:43:16;20.33;;;18.73;;
53879;SDS011;39791;53.184;5.486;2024-01-07T09:45:42;21.55;;;19.90;;
53879;SDS011;39791;53.184;5.486;2024-01-07T09:48:12;19.75;;;18.15;;
53879;SDS011;39791;53.184;5.486;2024-01-07T09:50:38;21.48;;;19.63;;
53879;SDS011;39791;53.184;5.486;2024-01-07T09:53:04;20.65;;;19.05;;
53879;SDS011;39791;53.184;5.486;2024-01-07T09:55:52;21.50;;;19.05;;
53879;SDS011;39791;53.184;5.486;2024-01-07T09:58:35;19.52;;;18.05;;
53879;SDS011;39791;53.184;5.486;2024-01-07T10:01:00;20.65;;;18.95;;
53879;SDS011;39791;53.184;5.486;2024-01-07T10:03:26;19.42;;;17.98;;
53879;SDS011;39791;53.184;5.486;2024-01-07T10:05:52;20.77;;;19.10;;
53879;SDS011;39791;53.184;5.486;2024-01-07T10:08:18;19.63;;;18.02;;
53879;SDS011;39791;53.184;5.486;2024-01-07T10:10:44;21.27;;;19.10;;
53879;SDS011;39791;53.184;5.486;2024-01-07T10:13:09;21.92;;;20.23;;
53879;SDS011;39791;53.184;5.486;2024-01-07T10:15:35;20.05;;;18.55;;
53879;SDS011;39791;53.184;5.486;2024-01-07T10:18:02;18.08;;;16.77;;
53879;SDS011;39791;53.184;5.486;2024-01-07T10:20:31;18.75;;;17.05;;
53879;SDS011;39791;53.184;5.486;2024-01-07T10:22:58;18.98;;;17.60;;
53879;SDS011;39791;53.184;5.486;2024-01-07T10:25:24;20.40;;;18.73;;
53879;SDS011;39791;53.184;5.486;2024-01-07T10:27:49;19.42;;;17.88;;
53879;SDS011;39791;53.184;5.486;2024-01-07T10:30:18;18.17;;;16.70;;
53879;SDS011;39791;53.184;5.486;2024-01-07T10:32:43;17.05;;;15.82;;
53879;SDS011;39791;53.184;5.486;2024-01-07T10:35:12;17.13;;;15.90;;
53879;SDS011;39791;53.184;5.486;2024-01-07T10:37:41;18.70;;;17.30;;
53879;SDS011;39791;53.184;5.486;2024-01-07T10:40:08;16.42;;;15.23;;
53879;SDS011;39791;53.184;5.486;2024-01-07T10:42:36;17.52;;;15.90;;
53879;SDS011;39791;53.184;5.486;2024-01-07T10:45:04;16.88;;;15.68;;
53879;SDS011;39791;53.184;5.486;2024-01-07T10:47:33;16.52;;;15.13;;
53879;SDS011;39791;53.184;5.486;2024-01-07T10:50:01;17.33;;;15.68;;
53879;SDS011;39791;53.184;5.486;2024-01-07T10:52:28;18.25;;;16.08;;
53879;SDS011;39791;53.184;5.486;2024-01-07T10:54:57;13.80;;;12.80;;
53879;SDS011;39791;53.184;5.486;2024-01-07T10:57:31;14.15;;;12.90;;
53879;SDS011;39791;53.184;5.486;2024-01-07T11:00:01;15.07;;;13.68;;
53879;SDS011;39791;53.184;5.486;2024-01-07T11:02:39;14.77;;;13.60;;
53879;SDS011;39791;53.184;5.486;2024-01-07T11:05:15;13.85;;;12.60;;
53879;SDS011;39791;53.184;5.486;2024-01-07T11:07:56;13.88;;;12.80;;
53879;SDS011;39791;53.184;5.486;2024-01-07T11:10:39;16.30;;;14.68;;
53879;SDS011;39791;53.184;5.486;2024-01-07T11:13:15;17.33;;;15.88;;
53879;SDS011;39791;53.184;5.486;2024-01-07T11:15:57;15.43;;;13.70;;
53879;SDS011;39791;53.184;5.486;2024-01-07T11:18:23;15.85;;;14.50;;
53879;SDS011;39791;53.184;5.486;2024-01-07T11:20:55;14.93;;;13.52;;
53879;SDS011;39791;53.184;5.486;2024-01-07T11:23:28;16.48;;;15.07;;
53879;SDS011;39791;53.184;5.486;2024-01-07T11:26:02;15.20;;;13.90;;
53879;SDS011;39791;53.184;5.486;2024-01-07T11:31:11;15.57;;;14.38;;
53879;SDS011;39791;53.184;5.486;2024-01-07T11:33:45;15.82;;;14.48;;
53879;SDS011;39791;53.184;5.486;2024-01-07T11:36:15;12.68;;;11.57;;
53879;SDS011;39791;53.184;5.486;2024-01-07T11:38:42;14.40;;;13.20;;
53879;SDS011;39791;53.184;5.486;2024-01-07T11:41:15;14.23;;;13.02;;
53879;SDS011;39791;53.184;5.486;2024-01-07T11:43:52;15.77;;;14.25;;
53879;SDS011;39791;53.184;5.486;2024-01-07T11:46:19;15.07;;;13.85;;
53879;SDS011;39791;53.184;5.486;2024-01-07T11:48:45;12.15;;;11.15;;
53879;SDS011;39791;53.184;5.486;2024-01-07T11:51:11;14.18;;;12.65;;
53879;SDS011;39791;53.184;5.486;2024-01-07T11:53:37;12.73;;;11.80;;
53879;SDS011;39791;53.184;5.486;2024-01-07T11:56:02;12.73;;;11.63;;
53879;SDS011;39791;53.184;5.486;2024-01-07T11:58:29;12.60;;;11.27;;
53879;SDS011;39791;53.184;5.486;2024-01-07T12:00:55;11.15;;;10.05;;
53879;SDS011;39791;53.184;5.486;2024-01-07T12:03:21;10.50;;;9.60;;
53879;SDS011;39791;53.184;5.486;2024-01-07T12:05:48;11.65;;;10.73;;
53879;SDS011;39791;53.184;5.486;2024-01-07T12:08:14;13.25;;;12.15;;
53879;SDS011;39791;53.184;5.486;2024-01-07T12:10:41;11.63;;;10.68;;
53879;SDS011;39791;53.184;5.486;2024-01-07T12:13:06;11.15;;;10.13;;
53879;SDS011;39791;53.184;5.486;2024-01-07T12:15:33;10.32;;;9.15;;
53879;SDS011;39791;53.184;5.486;2024-01-07T12:17:59;10.10;;;9.30;;
53879;SDS011;39791;53.184;5.486;2024-01-07T12:20:26;10.13;;;8.90;;
53879;SDS011;39791;53.184;5.486;2024-01-07T12:22:55;10.60;;;9.70;;
53879;SDS011;39791;53.184;5.486;2024-01-07T12:25:22;13.18;;;10.60;;
53879;SDS011;39791;53.184;5.486;2024-01-07T12:27:49;9.95;;;8.40;;
53879;SDS011;39791;53.184;5.486;2024-01-07T12:30:18;11.38;;;10.27;;
53879;SDS011;39791;53.184;5.486;2024-01-07T12:32:51;13.30;;;12.02;;
53879;SDS011;39791;53.184;5.486;2024-01-07T12:35:17;11.75;;;10.65;;
53879;SDS011;39791;53.184;5.486;2024-01-07T12:37:42;11.63;;;10.70;;
53879;SDS011;39791;53.184;5.486;2024-01-07T12:40:09;10.77;;;9.25;;
53879;SDS011;39791;53.184;5.486;2024-01-07T12:42:36;10.68;;;9.77;;
53879;SDS011;39791;53.184;5.486;2024-01-07T12:45:09;10.80;;;9.77;;
53879;SDS011;39791;53.184;5.486;2024-01-07T12:47:39;9.15;;;8.35;;
53879;SDS011;39791;53.184;5.486;2024-01-07T12:50:08;14.63;;;8.52;;
53879;SDS011;39791;53.184;5.486;2024-01-07T12:52:37;9.23;;;7.45;;
53879;SDS011;39791;53.184;5.486;2024-01-07T12:55:04;10.18;;;8.63;;
53879;SDS011;39791;53.184;5.486;2024-01-07T12:57:31;9.75;;;8.63;;
53879;SDS011;39791;53.184;5.486;2024-01-07T12:59:57;11.85;;;8.80;;
53879;SDS011;39791;53.184;5.486;2024-01-07T13:02:22;11.15;;;10.10;;
53879;SDS011;39791;53.184;5.486;2024-01-07T13:04:49;12.45;;;11.23;;
53879;SDS011;39791;53.184;5.486;2024-01-07T13:07:15;16.73;;;11.10;;
53879;SDS011;39791;53.184;5.486;2024-01-07T13:09:41;9.57;;;7.90;;
53879;SDS011;39791;53.184;5.486;2024-01-07T13:12:07;10.10;;;8.65;;
53879;SDS011;39791;53.184;5.486;2024-01-07T13:14:32;9.00;;;7.38;;
53879;SDS011;39791;53.184;5.486;2024-01-07T13:16:58;7.10;;;5.80;;
53879;SDS011;39791;53.184;5.486;2024-01-07T13:19:24;6.18;;;5.63;;
53879;SDS011;39791;53.184;5.486;2024-01-07T13:21:51;7.57;;;5.95;;
53879;SDS011;39791;53.184;5.486;2024-01-07T13:24:20;10.77;;;6.28;;
53879;SDS011;39791;53.184;5.486;2024-01-07T13:26:46;8.57;;;6.80;;
53879;SDS011;39791;53.184;5.486;2024-01-07T13:29:12;9.63;;;6.70;;
53879;SDS011;39791;53.184;5.486;2024-01-07T13:31:37;11.68;;;5.93;;
53879;SDS011;39791;53.184;5.486;2024-01-07T13:34:03;6.95;;;6.25;;
53879;SDS011;39791;53.184;5.486;2024-01-07T13:36:28;6.10;;;5.43;;
53879;SDS011;39791;53.184;5.486;2024-01-07T13:38:54;9.23;;;6.72;;
53879;SDS011;39791;53.184;5.486;2024-01-07T13:41:19;7.22;;;6.53;;
53879;SDS011;39791;53.184;5.486;2024-01-07T13:43:45;9.20;;;6.93;;
53879;SDS011;39791;53.184;5.486;2024-01-07T13:46:11;7.93;;;7.03;;
53879;SDS011;39791;53.184;5.486;2024-01-07T13:48:36;7.03;;;6.15;;
53879;SDS011;39791;53.184;5.486;2024-01-07T13:51:04;7.15;;;6.55;;
53879;SDS011;39791;53.184;5.486;2024-01-07T13:53:31;8.07;;;6.25;;
53879;SDS011;39791;53.184;5.486;2024-01-07T13:55:56;7.10;;;6.40;;
53879;SDS011;39791;53.184;5.486;2024-01-07T13:58:22;8.65;;;7.05;;
53879;SDS011;39791;53.184;5.486;2024-01-07T14:00:48;8.57;;;6.75;;
53879;SDS011;39791;53.184;5.486;2024-01-07T14:03:14;8.38;;;7.45;;
53879;SDS011;39791;53.184;5.486;2024-01-07T14:05:39;9.60;;;8.70;;
53879;SDS011;39791;53.184;5.486;2024-01-07T14:08:06;8.63;;;8.00;;
53879;SDS011;39791;53.184;5.486;2024-01-07T14:10:31;9.95;;;9.05;;
53879;SDS011;39791;53.184;5.486;2024-01-07T14:12:57;11.85;;;10.73;;
53879;SDS011;39791;53.184;5.486;2024-01-07T14:15:23;13.07;;;11.77;;
53879;SDS011;39791;53.184;5.486;2024-01-07T14:17:48;12.95;;;11.88;;
53879;SDS011;39791;53.184;5.486;2024-01-07T14:20:14;14.38;;;13.07;;
53879;SDS011;39791;53.184;5.486;2024-01-07T14:22:39;14.13;;;12.73;;